sensor_id;sensor_type;location;lat;lon;timestamp;P1;durP1;ratioP1;P2;durP2;ratioP2
17310;SDS011;8773;43.300;0.394;2023-07-20T00:00:24;7.63;;;6.93;;
17310;SDS011;8773;43.300;0.394;2023-07-20T00:02:52;7.03;;;6.43;;
17310;SDS011;8773;43.300;0.394;2023-07-20T00:05:37;7.32;;;6.72;;
17310;SDS011;8773;43.300;0.394;2023-07-20T00:08:05;6.50;;;6.00;;
17310;SDS011;8773;43.300;0.394;2023-07-20T00:10:32;7.30;;;6.38;;
17310;SDS011;8773;43.300;0.394;2023-07-20T00:13:00;7.35;;;6.63;;
17310;SDS011;8773;43.300;0.394;2023-07-20T00:15:27;8.23;;;6.95;;
17310;SDS011;8773;43.300;0.394;2023-07-20T00:17:55;7.78;;;6.57;;
17310;SDS011;8773;43.300;0.394;2023-07-20T00:20:23;6.63;;;6.07;;
17310;SDS011;8773;43.300;0.394;2023-07-20T00:22:52;7.22;;;6.40;;
17310;SDS011;8773;43.300;0.394;2023-07-20T00:25:19;6.95;;;6.45;;
17310;SDS011;8773;43.300;0.394;2023-07-20T00:27:47;6.45;;;5.85;;
17310;SDS011;8773;43.300;0.394;2023-07-20T00:30:14;6.82;;;6.10;;
17310;SDS011;8773;43.300;0.394;2023-07-20T00:32:42;7.88;;;6.28;;
17310;SDS011;8773;43.300;0.394;2023-07-20T00:35:10;7.28;;;6.28;;
17310;SDS011;8773;43.300;0.394;2023-07-20T00:37:38;5.50;;;4.97;;
17310;SDS011;8773;43.300;0.394;2023-07-20T00:40:07;6.15;;;5.65;;
17310;SDS011;8773;43.300;0.394;2023-07-20T00:42:35;6.38;;;5.78;;
17310;SDS011;8773;43.300;0.394;2023-07-20T00:45:03;7.20;;;5.63;;
17310;SDS011;8773;43.300;0.394;2023-07-20T00:47:31;6.28;;;5.78;;
17310;SDS011;8773;43.300;0.394;2023-07-20T00:49:59;6.00;;;5.50;;
17310;SDS011;8773;43.300;0.394;2023-07-20T00:52:27;5.93;;;5.40;;
17310;SDS011;8773;43.300;0.394;2023-07-20T00:54:55;6.60;;;6.00;;
17310;SDS011;8773;43.300;0.394;2023-07-20T00:57:25;6.13;;;5.55;;
17310;SDS011;8773;43.300;0.394;2023-07-20T00:59:52;5.55;;;5.05;;
17310;SDS011;8773;43.300;0.394;2023-07-20T01:02:20;5.85;;;5.13;;
17310;SDS011;8773;43.300;0.394;2023-07-20T01:04:48;5.82;;;5.40;;
17310;SDS011;8773;43.300;0.394;2023-07-20T01:07:17;7.28;;;5.63;;
17310;SDS011;8773;43.300;0.394;2023-07-20T01:09:52;6.13;;;5.53;;
17310;SDS011;8773;43.300;0.394;2023-07-20T01:12:27;5.60;;;5.18;;
17310;SDS011;8773;43.300;0.394;2023-07-20T01:15:00;5.80;;;5.32;;
17310;SDS011;8773;43.300;0.394;2023-07-20T01:17:27;6.30;;;5.18;;
17310;SDS011;8773;43.300;0.394;2023-07-20T01:19:54;5.68;;;5.15;;
17310;SDS011;8773;43.300;0.394;2023-07-20T01:22:27;5.90;;;5.38;;
17310;SDS011;8773;43.300;0.394;2023-07-20T01:25:21;5.93;;;5.00;;
17310;SDS011;8773;43.300;0.394;2023-07-20T01:28:11;5.20;;;4.72;;
17310;SDS011;8773;43.300;0.394;2023-07-20T01:30:55;5.90;;;5.10;;
17310;SDS011;8773;43.300;0.394;2023-07-20T01:33:27;5.10;;;4.53;;
17310;SDS011;8773;43.300;0.394;2023-07-20T01:35:58;5.03;;;4.63;;
17310;SDS011;8773;43.300;0.394;2023-07-20T01:38:27;6.95;;;4.75;;
17310;SDS011;8773;43.300;0.394;2023-07-20T01:40:55;5.72;;;5.20;;
17310;SDS011;8773;43.300;0.394;2023-07-20T01:43:24;5.03;;;4.63;;
17310;SDS011;8773;43.300;0.394;2023-07-20T01:45:51;5.18;;;4.75;;
17310;SDS011;8773;43.300;0.394;2023-07-20T01:48:19;5.10;;;4.68;;
17310;SDS011;8773;43.300;0.394;2023-07-20T01:50:48;5.30;;;4.90;;
17310;SDS011;8773;43.300;0.394;2023-07-20T01:53:15;4.80;;;4.40;;
17310;SDS011;8773;43.300;0.394;2023-07-20T01:55:42;5.75;;;5.13;;
17310;SDS011;8773;43.300;0.394;2023-07-20T01:58:10;5.30;;;4.78;;
17310;SDS011;8773;43.300;0.394;2023-07-20T02:00:37;4.97;;;4.60;;
17310;SDS011;8773;43.300;0.394;2023-07-20T02:03:05;6.03;;;4.15;;
17310;SDS011;8773;43.300;0.394;2023-07-20T02:05:33;5.30;;;4.40;;
17310;SDS011;8773;43.300;0.394;2023-07-20T02:08:02;4.50;;;4.10;;
17310;SDS011;8773;43.300;0.394;2023-07-20T02:10:29;4.43;;;4.03;;
17310;SDS011;8773;43.300;0.394;2023-07-20T02:12:57;5.80;;;4.28;;
17310;SDS011;8773;43.300;0.394;2023-07-20T02:15:24;4.15;;;3.90;;
17310;SDS011;8773;43.300;0.394;2023-07-20T02:17:52;4.50;;;4.20;;
17310;SDS011;8773;43.300;0.394;2023-07-20T02:20:19;4.50;;;4.25;;
17310;SDS011;8773;43.300;0.394;2023-07-20T02:22:47;4.50;;;4.20;;
17310;SDS011;8773;43.300;0.394;2023-07-20T02:25:15;6.63;;;4.45;;
17310;SDS011;8773;43.300;0.394;2023-07-20T02:27:43;4.68;;;4.32;;
17310;SDS011;8773;43.300;0.394;2023-07-20T02:30:10;4.30;;;4.00;;
17310;SDS011;8773;43.300;0.394;2023-07-20T02:32:38;4.07;;;3.75;;
17310;SDS011;8773;43.300;0.394;2023-07-20T02:35:05;4.43;;;4.22;;
17310;SDS011;8773;43.300;0.394;2023-07-20T02:37:33;4.90;;;4.50;;
17310;SDS011;8773;43.300;0.394;2023-07-20T02:40:01;4.53;;;4.13;;
17310;SDS011;8773;43.300;0.394;2023-07-20T02:42:30;4.55;;;4.15;;
17310;SDS011;8773;43.300;0.394;2023-07-20T02:44:57;4.20;;;3.90;;
17310;SDS011;8773;43.300;0.394;2023-07-20T02:47:25;5.13;;;4.63;;
17310;SDS011;8773;43.300;0.394;2023-07-20T02:49:52;4.15;;;3.95;;
17310;SDS011;8773;43.300;0.394;2023-07-20T02:52:20;4.03;;;3.80;;
17310;SDS011;8773;43.300;0.394;2023-07-20T02:54:48;4.07;;;3.88;;
17310;SDS011;8773;43.300;0.394;2023-07-20T02:57:16;4.75;;;4.28;;
17310;SDS011;8773;43.300;0.394;2023-07-20T02:59:45;4.53;;;4.22;;
17310;SDS011;8773;43.300;0.394;2023-07-20T03:02:12;4.82;;;4.43;;
17310;SDS011;8773;43.300;0.394;2023-07-20T03:04:39;5.22;;;4.78;;
17310;SDS011;8773;43.300;0.394;2023-07-20T03:07:09;5.07;;;4.55;;
17310;SDS011;8773;43.300;0.394;2023-07-20T03:09:37;5.15;;;4.75;;
17310;SDS011;8773;43.300;0.394;2023-07-20T03:12:04;4.65;;;4.22;;
17310;SDS011;8773;43.300;0.394;2023-07-20T03:14:33;4.50;;;4.20;;
17310;SDS011;8773;43.300;0.394;2023-07-20T03:17:02;5.18;;;4.50;;
17310;SDS011;8773;43.300;0.394;2023-07-20T03:19:29;4.88;;;4.50;;
17310;SDS011;8773;43.300;0.394;2023-07-20T03:21:57;4.60;;;4.20;;
17310;SDS011;8773;43.300;0.394;2023-07-20T03:24:24;5.00;;;4.60;;
17310;SDS011;8773;43.300;0.394;2023-07-20T03:26:51;4.65;;;4.30;;
17310;SDS011;8773;43.300;0.394;2023-07-20T03:29:19;5.00;;;4.70;;
17310;SDS011;8773;43.300;0.394;2023-07-20T03:31:46;4.68;;;4.35;;
17310;SDS011;8773;43.300;0.394;2023-07-20T03:34:15;4.80;;;4.43;;
17310;SDS011;8773;43.300;0.394;2023-07-20T03:36:43;4.93;;;4.53;;
17310;SDS011;8773;43.300;0.394;2023-07-20T03:39:10;4.95;;;4.55;;
17310;SDS011;8773;43.300;0.394;2023-07-20T03:41:37;4.63;;;4.28;;
17310;SDS011;8773;43.300;0.394;2023-07-20T03:44:05;5.10;;;4.70;;
17310;SDS011;8773;43.300;0.394;2023-07-20T03:46:32;5.47;;;4.53;;
17310;SDS011;8773;43.300;0.394;2023-07-20T03:49:00;4.80;;;4.32;;
17310;SDS011;8773;43.300;0.394;2023-07-20T03:51:28;5.00;;;4.70;;
17310;SDS011;8773;43.300;0.394;2023-07-20T03:53:56;5.03;;;4.50;;
17310;SDS011;8773;43.300;0.394;2023-07-20T03:56:23;5.18;;;4.78;;
17310;SDS011;8773;43.300;0.394;2023-07-20T03:58:51;6.60;;;5.07;;
17310;SDS011;8773;43.300;0.394;2023-07-20T04:01:18;4.97;;;4.57;;
17310;SDS011;8773;43.300;0.394;2023-07-20T04:03:46;4.70;;;4.40;;
17310;SDS011;8773;43.300;0.394;2023-07-20T04:06:16;6.10;;;4.65;;
17310;SDS011;8773;43.300;0.394;2023-07-20T04:08:45;5.20;;;4.57;;
17310;SDS011;8773;43.300;0.394;2023-07-20T04:11:12;5.13;;;4.72;;
17310;SDS011;8773;43.300;0.394;2023-07-20T04:13:40;4.75;;;4.45;;
17310;SDS011;8773;43.300;0.394;2023-07-20T04:16:07;4.68;;;4.38;;
17310;SDS011;8773;43.300;0.394;2023-07-20T04:18:35;5.00;;;4.50;;
17310;SDS011;8773;43.300;0.394;2023-07-20T04:21:02;5.18;;;4.60;;
17310;SDS011;8773;43.300;0.394;2023-07-20T04:23:29;4.93;;;4.57;;
17310;SDS011;8773;43.300;0.394;2023-07-20T04:25:58;5.10;;;4.70;;
17310;SDS011;8773;43.300;0.394;2023-07-20T04:28:26;5.10;;;4.70;;
17310;SDS011;8773;43.300;0.394;2023-07-20T04:30:53;4.57;;;4.28;;
17310;SDS011;8773;43.300;0.394;2023-07-20T04:33:21;4.70;;;4.40;;
17310;SDS011;8773;43.300;0.394;2023-07-20T04:35:49;4.68;;;4.38;;
17310;SDS011;8773;43.300;0.394;2023-07-20T04:38:18;4.68;;;4.28;;
17310;SDS011;8773;43.300;0.394;2023-07-20T04:40:46;4.80;;;4.50;;
17310;SDS011;8773;43.300;0.394;2023-07-20T04:43:16;5.00;;;4.63;;
17310;SDS011;8773;43.300;0.394;2023-07-20T04:45:44;4.95;;;4.57;;
17310;SDS011;8773;43.300;0.394;2023-07-20T04:48:13;5.13;;;4.80;;
17310;SDS011;8773;43.300;0.394;2023-07-20T04:50:41;5.85;;;5.00;;
17310;SDS011;8773;43.300;0.394;2023-07-20T04:53:09;5.10;;;4.80;;
17310;SDS011;8773;43.300;0.394;2023-07-20T04:55:37;6.00;;;5.50;;
17310;SDS011;8773;43.300;0.394;2023-07-20T04:58:05;6.00;;;5.55;;
17310;SDS011;8773;43.300;0.394;2023-07-20T05:00:35;6.55;;;6.05;;
17310;SDS011;8773;43.300;0.394;2023-07-20T05:03:02;6.28;;;5.63;;
17310;SDS011;8773;43.300;0.394;2023-07-20T05:05:29;5.43;;;5.07;;
17310;SDS011;8773;43.300;0.394;2023-07-20T05:07:56;5.43;;;5.03;;
17310;SDS011;8773;43.300;0.394;2023-07-20T05:10:23;5.40;;;5.00;;
17310;SDS011;8773;43.300;0.394;2023-07-20T05:12:50;6.00;;;5.50;;
17310;SDS011;8773;43.300;0.394;2023-07-20T05:15:17;5.70;;;5.30;;
17310;SDS011;8773;43.300;0.394;2023-07-20T05:17:46;4.95;;;4.65;;
17310;SDS011;8773;43.300;0.394;2023-07-20T05:20:14;5.30;;;4.95;;
17310;SDS011;8773;43.300;0.394;2023-07-20T05:22:42;5.07;;;4.60;;
17310;SDS011;8773;43.300;0.394;2023-07-20T05:25:10;6.45;;;5.72;;
17310;SDS011;8773;43.300;0.394;2023-07-20T05:27:38;5.40;;;5.10;;
17310;SDS011;8773;43.300;0.394;2023-07-20T05:30:07;5.63;;;5.18;;
17310;SDS011;8773;43.300;0.394;2023-07-20T05:32:35;4.88;;;4.57;;
17310;SDS011;8773;43.300;0.394;2023-07-20T05:35:05;4.90;;;4.50;;
17310;SDS011;8773;43.300;0.394;2023-07-20T05:37:33;5.57;;;5.07;;
17310;SDS011;8773;43.300;0.394;2023-07-20T05:40:01;5.28;;;4.85;;
17310;SDS011;8773;43.300;0.394;2023-07-20T05:42:29;5.88;;;4.65;;
17310;SDS011;8773;43.300;0.394;2023-07-20T05:44:56;4.68;;;4.28;;
17310;SDS011;8773;43.300;0.394;2023-07-20T05:47:24;4.65;;;4.35;;
17310;SDS011;8773;43.300;0.394;2023-07-20T05:49:52;4.97;;;4.57;;
17310;SDS011;8773;43.300;0.394;2023-07-20T05:52:21;5.03;;;4.65;;
17310;SDS011;8773;43.300;0.394;2023-07-20T05:54:49;5.20;;;4.90;;
17310;SDS011;8773;43.300;0.394;2023-07-20T05:57:16;5.38;;;4.88;;
17310;SDS011;8773;43.300;0.394;2023-07-20T05:59:44;5.15;;;4.75;;
17310;SDS011;8773;43.300;0.394;2023-07-20T06:02:12;5.03;;;4.60;;
17310;SDS011;8773;43.300;0.394;2023-07-20T06:04:39;5.32;;;4.82;;
17310;SDS011;8773;43.300;0.394;2023-07-20T06:07:07;5.05;;;4.65;;
17310;SDS011;8773;43.300;0.394;2023-07-20T06:09:36;5.38;;;4.88;;
17310;SDS011;8773;43.300;0.394;2023-07-20T06:12:04;5.10;;;4.80;;
17310;SDS011;8773;43.300;0.394;2023-07-20T06:14:33;4.88;;;4.53;;
17310;SDS011;8773;43.300;0.394;2023-07-20T06:17:01;5.13;;;4.72;;
17310;SDS011;8773;43.300;0.394;2023-07-20T06:19:28;4.82;;;4.53;;
17310;SDS011;8773;43.300;0.394;2023-07-20T06:21:56;5.05;;;4.75;;
17310;SDS011;8773;43.300;0.394;2023-07-20T06:24:24;5.68;;;4.68;;
17310;SDS011;8773;43.300;0.394;2023-07-20T06:26:53;5.10;;;4.68;;
17310;SDS011;8773;43.300;0.394;2023-07-20T06:29:20;5.80;;;4.75;;
17310;SDS011;8773;43.300;0.394;2023-07-20T06:31:48;5.10;;;4.70;;
17310;SDS011;8773;43.300;0.394;2023-07-20T06:34:16;5.25;;;4.95;;
17310;SDS011;8773;43.300;0.394;2023-07-20T06:36:44;5.25;;;4.70;;
17310;SDS011;8773;43.300;0.394;2023-07-20T06:39:12;5.85;;;5.32;;
17310;SDS011;8773;43.300;0.394;2023-07-20T06:41:42;5.18;;;4.68;;
17310;SDS011;8773;43.300;0.394;2023-07-20T06:44:11;5.60;;;5.20;;
17310;SDS011;8773;43.300;0.394;2023-07-20T06:46:39;4.72;;;4.32;;
17310;SDS011;8773;43.300;0.394;2023-07-20T06:49:07;6.28;;;5.20;;
17310;SDS011;8773;43.300;0.394;2023-07-20T06:51:38;5.82;;;5.18;;
17310;SDS011;8773;43.300;0.394;2023-07-20T06:54:05;5.30;;;4.90;;
17310;SDS011;8773;43.300;0.394;2023-07-20T06:56:33;5.50;;;5.10;;
17310;SDS011;8773;43.300;0.394;2023-07-20T06:59:01;5.20;;;4.80;;
17310;SDS011;8773;43.300;0.394;2023-07-20T07:01:30;5.32;;;4.93;;
17310;SDS011;8773;43.300;0.394;2023-07-20T07:03:58;5.60;;;5.07;;
17310;SDS011;8773;43.300;0.394;2023-07-20T07:06:25;5.68;;;5.18;;
17310;SDS011;8773;43.300;0.394;2023-07-20T07:08:53;4.80;;;4.50;;
17310;SDS011;8773;43.300;0.394;2023-07-20T07:11:23;5.57;;;5.07;;
17310;SDS011;8773;43.300;0.394;2023-07-20T07:13:51;5.68;;;5.28;;
17310;SDS011;8773;43.300;0.394;2023-07-20T07:16:19;6.28;;;5.82;;
17310;SDS011;8773;43.300;0.394;2023-07-20T07:18:49;5.38;;;5.10;;
17310;SDS011;8773;43.300;0.394;2023-07-20T07:21:17;6.13;;;5.60;;
17310;SDS011;8773;43.300;0.394;2023-07-20T07:23:45;5.25;;;4.85;;
17310;SDS011;8773;43.300;0.394;2023-07-20T07:26:13;5.28;;;4.88;;
17310;SDS011;8773;43.300;0.394;2023-07-20T07:28:41;5.85;;;5.35;;
17310;SDS011;8773;43.300;0.394;2023-07-20T07:31:08;6.00;;;5.50;;
17310;SDS011;8773;43.300;0.394;2023-07-20T07:33:36;6.03;;;5.55;;
17310;SDS011;8773;43.300;0.394;2023-07-20T07:36:06;6.90;;;5.93;;
17310;SDS011;8773;43.300;0.394;2023-07-20T07:38:34;5.43;;;5.00;;
17310;SDS011;8773;43.300;0.394;2023-07-20T07:41:21;5.68;;;5.28;;
17310;SDS011;8773;43.300;0.394;2023-07-20T07:43:49;5.45;;;5.15;;
17310;SDS011;8773;43.300;0.394;2023-07-20T07:46:16;5.35;;;4.88;;
17310;SDS011;8773;43.300;0.394;2023-07-20T07:48:44;5.57;;;5.10;;
17310;SDS011;8773;43.300;0.394;2023-07-20T07:51:13;5.45;;;4.97;;
17310;SDS011;8773;43.300;0.394;2023-07-20T07:53:41;5.57;;;5.13;;
17310;SDS011;8773;43.300;0.394;2023-07-20T07:56:09;5.72;;;5.32;;
17310;SDS011;8773;43.300;0.394;2023-07-20T07:58:37;5.25;;;4.88;;
17310;SDS011;8773;43.300;0.394;2023-07-20T08:01:04;5.63;;;5.18;;
17310;SDS011;8773;43.300;0.394;2023-07-20T08:03:32;5.15;;;4.60;;
17310;SDS011;8773;43.300;0.394;2023-07-20T08:06:00;5.30;;;4.93;;
17310;SDS011;8773;43.300;0.394;2023-07-20T08:08:29;5.75;;;5.20;;
17310;SDS011;8773;43.300;0.394;2023-07-20T08:10:58;5.00;;;4.50;;
17310;SDS011;8773;43.300;0.394;2023-07-20T08:13:25;5.45;;;5.05;;
17310;SDS011;8773;43.300;0.394;2023-07-20T08:15:53;4.85;;;4.53;;
17310;SDS011;8773;43.300;0.394;2023-07-20T08:18:21;4.97;;;4.57;;
17310;SDS011;8773;43.300;0.394;2023-07-20T08:20:49;4.68;;;4.28;;
17310;SDS011;8773;43.300;0.394;2023-07-20T08:23:17;5.13;;;4.72;;
17310;SDS011;8773;43.300;0.394;2023-07-20T08:25:46;4.90;;;4.50;;
17310;SDS011;8773;43.300;0.394;2023-07-20T08:28:14;5.03;;;4.65;;
17310;SDS011;8773;43.300;0.394;2023-07-20T08:30:43;4.90;;;4.50;;
17310;SDS011;8773;43.300;0.394;2023-07-20T08:33:12;4.68;;;4.38;;
17310;SDS011;8773;43.300;0.394;2023-07-20T08:35:41;5.57;;;5.05;;
17310;SDS011;8773;43.300;0.394;2023-07-20T08:38:09;5.50;;;4.90;;
17310;SDS011;8773;43.300;0.394;2023-07-20T08:40:39;5.93;;;5.07;;
17310;SDS011;8773;43.300;0.394;2023-07-20T08:43:09;5.45;;;5.05;;
17310;SDS011;8773;43.300;0.394;2023-07-20T08:45:38;6.07;;;5.05;;
17310;SDS011;8773;43.300;0.394;2023-07-20T08:48:07;5.20;;;4.80;;
17310;SDS011;8773;43.300;0.394;2023-07-20T08:50:35;5.30;;;4.93;;
17310;SDS011;8773;43.300;0.394;2023-07-20T08:53:05;4.97;;;4.50;;
17310;SDS011;8773;43.300;0.394;2023-07-20T08:55:34;5.18;;;4.78;;
17310;SDS011;8773;43.300;0.394;2023-07-20T08:58:02;5.13;;;4.75;;
17310;SDS011;8773;43.300;0.394;2023-07-20T09:00:33;4.75;;;4.43;;
17310;SDS011;8773;43.300;0.394;2023-07-20T09:03:03;4.88;;;4.53;;
17310;SDS011;8773;43.300;0.394;2023-07-20T09:05:32;4.95;;;4.72;;
17310;SDS011;8773;43.300;0.394;2023-07-20T09:08:00;4.72;;;4.38;;
17310;SDS011;8773;43.300;0.394;2023-07-20T09:10:28;4.93;;;4.53;;
17310;SDS011;8773;43.300;0.394;2023-07-20T09:12:55;5.75;;;5.20;;
17310;SDS011;8773;43.300;0.394;2023-07-20T09:15:23;5.07;;;4.70;;
17310;SDS011;8773;43.300;0.394;2023-07-20T09:17:52;4.75;;;4.45;;
17310;SDS011;8773;43.300;0.394;2023-07-20T09:20:20;5.53;;;5.15;;
17310;SDS011;8773;43.300;0.394;2023-07-20T09:22:50;4.63;;;4.43;;
17310;SDS011;8773;43.300;0.394;2023-07-20T09:25:18;5.25;;;4.85;;
17310;SDS011;8773;43.300;0.394;2023-07-20T09:27:49;5.22;;;4.82;;
17310;SDS011;8773;43.300;0.394;2023-07-20T09:30:18;5.13;;;4.75;;
17310;SDS011;8773;43.300;0.394;2023-07-20T09:32:46;4.95;;;4.55;;
17310;SDS011;8773;43.300;0.394;2023-07-20T09:35:19;4.93;;;4.60;;
17310;SDS011;8773;43.300;0.394;2023-07-20T09:37:52;5.15;;;4.65;;
17310;SDS011;8773;43.300;0.394;2023-07-20T09:40:41;5.95;;;5.47;;
17310;SDS011;8773;43.300;0.394;2023-07-20T09:43:12;5.32;;;5.03;;
17310;SDS011;8773;43.300;0.394;2023-07-20T09:45:46;5.07;;;4.70;;
17310;SDS011;8773;43.300;0.394;2023-07-20T09:48:16;5.43;;;5.03;;
17310;SDS011;8773;43.300;0.394;2023-07-20T09:50:49;5.20;;;4.80;;
17310;SDS011;8773;43.300;0.394;2023-07-20T09:53:18;4.97;;;4.68;;
17310;SDS011;8773;43.300;0.394;2023-07-20T09:55:47;5.68;;;5.10;;
17310;SDS011;8773;43.300;0.394;2023-07-20T09:58:15;6.07;;;5.68;;
17310;SDS011;8773;43.300;0.394;2023-07-20T10:00:44;6.28;;;5.65;;
17310;SDS011;8773;43.300;0.394;2023-07-20T10:03:16;4.90;;;4.60;;
17310;SDS011;8773;43.300;0.394;2023-07-20T10:05:47;5.47;;;5.05;;
17310;SDS011;8773;43.300;0.394;2023-07-20T10:08:20;5.45;;;5.10;;
17310;SDS011;8773;43.300;0.394;2023-07-20T10:10:53;6.15;;;5.65;;
17310;SDS011;8773;43.300;0.394;2023-07-20T10:13:25;5.40;;;5.00;;
17310;SDS011;8773;43.300;0.394;2023-07-20T10:15:58;5.70;;;5.20;;
17310;SDS011;8773;43.300;0.394;2023-07-20T10:18:31;5.43;;;5.03;;
17310;SDS011;8773;43.300;0.394;2023-07-20T10:21:05;5.80;;;5.40;;
17310;SDS011;8773;43.300;0.394;2023-07-20T10:23:38;5.38;;;4.97;;
17310;SDS011;8773;43.300;0.394;2023-07-20T10:26:06;5.22;;;4.93;;
17310;SDS011;8773;43.300;0.394;2023-07-20T10:28:35;6.10;;;5.60;;
17310;SDS011;8773;43.300;0.394;2023-07-20T10:31:03;5.50;;;4.95;;
17310;SDS011;8773;43.300;0.394;2023-07-20T10:33:33;5.60;;;5.20;;
17310;SDS011;8773;43.300;0.394;2023-07-20T10:36:02;5.53;;;5.18;;
17310;SDS011;8773;43.300;0.394;2023-07-20T10:38:42;4.75;;;4.55;;
17310;SDS011;8773;43.300;0.394;2023-07-20T10:41:19;5.25;;;4.95;;
17310;SDS011;8773;43.300;0.394;2023-07-20T10:43:48;5.50;;;5.05;;
17310;SDS011;8773;43.300;0.394;2023-07-20T10:46:32;5.60;;;5.10;;
17310;SDS011;8773;43.300;0.394;2023-07-20T10:49:02;5.25;;;4.85;;
17310;SDS011;8773;43.300;0.394;2023-07-20T10:51:31;5.70;;;5.30;;
17310;SDS011;8773;43.300;0.394;2023-07-20T10:54:09;5.35;;;4.95;;
17310;SDS011;8773;43.300;0.394;2023-07-20T10:56:57;5.88;;;5.47;;
17310;SDS011;8773;43.300;0.394;2023-07-20T10:59:51;5.78;;;5.38;;
17310;SDS011;8773;43.300;0.394;2023-07-20T11:02:19;5.47;;;5.10;;
17310;SDS011;8773;43.300;0.394;2023-07-20T11:04:47;5.15;;;4.80;;
17310;SDS011;8773;43.300;0.394;2023-07-20T11:07:15;5.40;;;4.90;;
17310;SDS011;8773;43.300;0.394;2023-07-20T11:09:45;5.70;;;5.30;;
17310;SDS011;8773;43.300;0.394;2023-07-20T11:12:16;5.72;;;5.40;;
17310;SDS011;8773;43.300;0.394;2023-07-20T11:14:52;4.97;;;4.72;;
17310;SDS011;8773;43.300;0.394;2023-07-20T11:17:22;5.97;;;5.47;;
17310;SDS011;8773;43.300;0.394;2023-07-20T11:19:56;5.25;;;4.70;;
17310;SDS011;8773;43.300;0.394;2023-07-20T11:22:27;5.47;;;5.07;;
17310;SDS011;8773;43.300;0.394;2023-07-20T11:24:59;5.28;;;4.97;;
17310;SDS011;8773;43.300;0.394;2023-07-20T11:27:27;5.55;;;5.15;;
17310;SDS011;8773;43.300;0.394;2023-07-20T11:29:54;5.15;;;4.80;;
17310;SDS011;8773;43.300;0.394;2023-07-20T11:32:22;5.05;;;4.70;;
17310;SDS011;8773;43.300;0.394;2023-07-20T11:34:50;5.10;;;4.70;;
17310;SDS011;8773;43.300;0.394;2023-07-20T11:37:18;5.07;;;4.78;;
17310;SDS011;8773;43.300;0.394;2023-07-20T11:39:46;5.15;;;4.68;;
17310;SDS011;8773;43.300;0.394;2023-07-20T11:42:16;5.68;;;5.20;;
17310;SDS011;8773;43.300;0.394;2023-07-20T11:44:51;5.30;;;4.88;;
17310;SDS011;8773;43.300;0.394;2023-07-20T11:47:19;5.07;;;4.78;;
17310;SDS011;8773;43.300;0.394;2023-07-20T11:49:46;5.38;;;5.07;;
17310;SDS011;8773;43.300;0.394;2023-07-20T11:52:15;4.90;;;4.47;;
17310;SDS011;8773;43.300;0.394;2023-07-20T11:54:43;4.88;;;4.57;;
17310;SDS011;8773;43.300;0.394;2023-07-20T11:57:17;5.28;;;4.88;;
17310;SDS011;8773;43.300;0.394;2023-07-20T12:02:32;5.35;;;4.95;;
17310;SDS011;8773;43.300;0.394;2023-07-20T12:05:00;4.97;;;4.68;;
17310;SDS011;8773;43.300;0.394;2023-07-20T12:07:32;5.40;;;5.10;;
17310;SDS011;8773;43.300;0.394;2023-07-20T12:10:03;5.35;;;4.97;;
17310;SDS011;8773;43.300;0.394;2023-07-20T12:12:32;5.63;;;5.13;;
17310;SDS011;8773;43.300;0.394;2023-07-20T12:15:13;5.20;;;4.80;;
17310;SDS011;8773;43.300;0.394;2023-07-20T12:17:42;5.20;;;4.90;;
17310;SDS011;8773;43.300;0.394;2023-07-20T12:20:11;5.10;;;4.70;;
17310;SDS011;8773;43.300;0.394;2023-07-20T12:22:39;5.10;;;4.70;;
17310;SDS011;8773;43.300;0.394;2023-07-20T12:25:07;4.53;;;4.20;;
17310;SDS011;8773;43.300;0.394;2023-07-20T12:27:37;5.05;;;4.70;;
17310;SDS011;8773;43.300;0.394;2023-07-20T12:30:05;4.97;;;4.68;;
17310;SDS011;8773;43.300;0.394;2023-07-20T12:32:34;4.97;;;4.68;;
17310;SDS011;8773;43.300;0.394;2023-07-20T12:35:02;4.90;;;4.60;;
17310;SDS011;8773;43.300;0.394;2023-07-20T12:37:30;4.57;;;4.35;;
17310;SDS011;8773;43.300;0.394;2023-07-20T12:39:58;4.50;;;4.30;;
17310;SDS011;8773;43.300;0.394;2023-07-20T12:42:26;5.22;;;4.82;;
17310;SDS011;8773;43.300;0.394;2023-07-20T12:44:55;4.60;;;4.30;;
17310;SDS011;8773;43.300;0.394;2023-07-20T12:47:23;4.85;;;4.55;;
17310;SDS011;8773;43.300;0.394;2023-07-20T12:49:50;6.28;;;4.55;;
17310;SDS011;8773;43.300;0.394;2023-07-20T12:52:18;4.68;;;4.38;;
17310;SDS011;8773;43.300;0.394;2023-07-20T12:54:46;4.70;;;4.40;;
17310;SDS011;8773;43.300;0.394;2023-07-20T12:57:14;4.50;;;4.30;;
17310;SDS011;8773;43.300;0.394;2023-07-20T12:59:41;4.43;;;4.13;;
17310;SDS011;8773;43.300;0.394;2023-07-20T13:02:11;4.53;;;4.22;;
17310;SDS011;8773;43.300;0.394;2023-07-20T13:04:38;4.65;;;4.45;;
17310;SDS011;8773;43.300;0.394;2023-07-20T13:07:09;4.25;;;4.05;;
17310;SDS011;8773;43.300;0.394;2023-07-20T13:09:40;4.30;;;4.07;;
17310;SDS011;8773;43.300;0.394;2023-07-20T13:12:08;4.88;;;4.57;;
17310;SDS011;8773;43.300;0.394;2023-07-20T13:14:36;4.68;;;4.28;;
17310;SDS011;8773;43.300;0.394;2023-07-20T13:17:03;4.57;;;4.28;;
17310;SDS011;8773;43.300;0.394;2023-07-20T13:19:33;4.38;;;4.18;;
17310;SDS011;8773;43.300;0.394;2023-07-20T13:22:00;4.13;;;3.83;;
17310;SDS011;8773;43.300;0.394;2023-07-20T13:24:28;4.57;;;4.18;;
17310;SDS011;8773;43.300;0.394;2023-07-20T13:26:56;4.47;;;4.07;;
17310;SDS011;8773;43.300;0.394;2023-07-20T13:29:23;4.07;;;3.85;;
17310;SDS011;8773;43.300;0.394;2023-07-20T13:31:51;3.85;;;3.55;;
17310;SDS011;8773;43.300;0.394;2023-07-20T13:34:20;3.80;;;3.60;;
17310;SDS011;8773;43.300;0.394;2023-07-20T13:36:52;4.40;;;4.10;;
17310;SDS011;8773;43.300;0.394;2023-07-20T13:39:19;4.00;;;3.75;;
17310;SDS011;8773;43.300;0.394;2023-07-20T13:41:47;4.10;;;3.80;;
17310;SDS011;8773;43.300;0.394;2023-07-20T13:44:15;3.58;;;3.28;;
17310;SDS011;8773;43.300;0.394;2023-07-20T13:46:44;3.85;;;3.65;;
17310;SDS011;8773;43.300;0.394;2023-07-20T13:49:11;3.67;;;3.40;;
17310;SDS011;8773;43.300;0.394;2023-07-20T13:51:49;3.70;;;3.45;;
17310;SDS011;8773;43.300;0.394;2023-07-20T13:54:38;3.97;;;3.78;;
17310;SDS011;8773;43.300;0.394;2023-07-20T13:57:14;3.65;;;3.45;;
17310;SDS011;8773;43.300;0.394;2023-07-20T13:59:42;3.70;;;3.50;;
17310;SDS011;8773;43.300;0.394;2023-07-20T14:02:09;4.00;;;3.78;;
17310;SDS011;8773;43.300;0.394;2023-07-20T14:04:40;3.63;;;3.33;;
17310;SDS011;8773;43.300;0.394;2023-07-20T14:07:08;3.25;;;3.15;;
17310;SDS011;8773;43.300;0.394;2023-07-20T14:09:40;4.60;;;4.20;;
17310;SDS011;8773;43.300;0.394;2023-07-20T14:12:28;3.33;;;3.22;;
17310;SDS011;8773;43.300;0.394;2023-07-20T14:14:56;3.70;;;3.50;;
17310;SDS011;8773;43.300;0.394;2023-07-20T14:17:23;4.90;;;4.60;;
17310;SDS011;8773;43.300;0.394;2023-07-20T14:19:52;4.88;;;4.50;;
17310;SDS011;8773;43.300;0.394;2023-07-20T14:22:20;4.57;;;4.28;;
17310;SDS011;8773;43.300;0.394;2023-07-20T14:24:49;4.03;;;3.70;;
17310;SDS011;8773;43.300;0.394;2023-07-20T14:27:17;4.43;;;4.13;;
17310;SDS011;8773;43.300;0.394;2023-07-20T14:29:45;4.90;;;4.60;;
17310;SDS011;8773;43.300;0.394;2023-07-20T14:32:12;4.85;;;4.40;;
17310;SDS011;8773;43.300;0.394;2023-07-20T14:34:40;5.70;;;5.30;;
17310;SDS011;8773;43.300;0.394;2023-07-20T14:37:08;4.78;;;4.47;;
17310;SDS011;8773;43.300;0.394;2023-07-20T14:39:36;4.60;;;4.30;;
17310;SDS011;8773;43.300;0.394;2023-07-20T14:42:05;4.65;;;4.35;;
17310;SDS011;8773;43.300;0.394;2023-07-20T14:44:33;4.43;;;4.13;;
17310;SDS011;8773;43.300;0.394;2023-07-20T14:47:01;4.90;;;4.60;;
17310;SDS011;8773;43.300;0.394;2023-07-20T14:49:40;4.88;;;4.47;;
17310;SDS011;8773;43.300;0.394;2023-07-20T14:52:08;5.25;;;4.75;;
17310;SDS011;8773;43.300;0.394;2023-07-20T14:54:38;3.00;;;2.90;;
17310;SDS011;8773;43.300;0.394;2023-07-20T14:57:07;3.38;;;3.17;;
17310;SDS011;8773;43.300;0.394;2023-07-20T14:59:35;2.92;;;2.70;;
17310;SDS011;8773;43.300;0.394;2023-07-20T15:02:03;2.72;;;2.53;;
17310;SDS011;8773;43.300;0.394;2023-07-20T15:04:31;2.53;;;2.33;;
17310;SDS011;8773;43.300;0.394;2023-07-20T15:06:58;2.63;;;2.53;;
17310;SDS011;8773;43.300;0.394;2023-07-20T15:09:26;2.67;;;2.40;;
17310;SDS011;8773;43.300;0.394;2023-07-20T15:11:54;2.80;;;2.60;;
17310;SDS011;8773;43.300;0.394;2023-07-20T15:14:23;3.85;;;2.78;;